Crescent, Oklahoma
Current Conditions -  °F | °C
As of 3:53 PM on Monday 22 Dec 2014 (Local Time) from KGOK Reporting Station
Few Clouds Few Clouds  
Wind Chill: 13°   Ceiling: Unl
Heat Index: 13°   Visibility: 10mi
Dew Point:   Wind: 12mph
Humidity: 49%   Direction: 330°NNW
Pressure: 29.59"   Gusts: 21mph
Location:  35.95°N, 97.59°W
Report Text: KGOK 222153Z AUTO 33010G18KT 10SM FEW042 13/03 A2959 RMK AO2 SLP019 T01330028
Loading
Personal Weather Stations






























Interactive Weather Map New forecast layout! Learn more

10-Day Weather Forecast

Advertisements
Track Severe Weather on mobile